createdAt,value
2023-02-24T01:02:56.295Z,4.63
2023-02-24T01:22:41.213Z,3.80
2023-02-24T01:41:07.252Z,4.30
2023-02-24T01:47:33.586Z,3.97
2023-02-24T02:07:55.634Z,4.00
2023-02-24T04:00:07.245Z,5.00
2023-02-24T04:11:26.366Z,5.47
2023-02-24T04:16:29.104Z,5.30
2023-02-24T04:21:28.240Z,5.87
2023-02-24T04:26:25.369Z,7.30
2023-02-24T04:31:24.829Z,6.75
2023-02-24T04:36:20.660Z,7.57
2023-02-24T04:41:23.784Z,8.87
2023-02-24T04:46:17.544Z,7.30
2023-02-24T04:51:10.967Z,6.77
2023-02-24T04:56:09.452Z,7.40
2023-02-24T05:01:15.167Z,7.70
2023-02-24T05:06:17.500Z,8.33
2023-02-24T05:11:16.376Z,8.57
2023-02-24T05:16:13.013Z,7.93
2023-02-24T05:21:25.439Z,8.87
2023-02-24T05:26:22.628Z,8.70
2023-02-24T05:31:24.386Z,7.63
2023-02-24T05:36:22.975Z,6.53
2023-02-24T05:41:32.730Z,6.60
2023-02-24T05:46:32.734Z,6.47
2023-02-24T05:51:46.984Z,8.85
2023-02-24T05:56:45.234Z,8.32
2023-02-24T06:01:47.373Z,7.30
2023-02-24T06:06:44.895Z,6.22
2023-02-24T06:11:52.084Z,7.53
2023-02-24T06:16:52.257Z,6.97
2023-02-24T06:21:48.340Z,6.03
2023-02-24T06:26:51.091Z,6.30
2023-02-24T06:31:55.118Z,5.35
2023-02-24T06:36:54.145Z,4.97
2023-02-24T06:41:54.245Z,5.43
2023-02-24T06:47:02.308Z,10.18
2023-02-24T06:52:56.202Z,8.80
2023-02-24T06:58:08.728Z,6.22
2023-02-24T07:03:19.230Z,6.00
2023-02-24T07:08:38.490Z,6.37
2023-02-24T07:13:52.828Z,6.10
2023-02-24T07:18:52.350Z,7.85
2023-02-24T07:23:58.776Z,7.95
2023-02-24T07:28:58.881Z,11.70
2023-02-24T07:34:11.401Z,10.83
2023-02-24T07:39:09.722Z,8.20
2023-02-24T07:49:09.663Z,8.45
2023-02-24T07:54:03.596Z,8.85
2023-02-24T07:59:00.494Z,8.75
2023-02-24T08:03:57.742Z,9.57
2023-02-24T08:08:59.318Z,8.77
2023-02-24T08:13:52.704Z,8.82
2023-02-24T08:18:49.201Z,9.75
2023-02-24T08:23:45.791Z,10.95
2023-02-24T08:28:39.511Z,9.20
2023-02-24T08:33:32.962Z,9.60
2023-02-24T08:38:28.521Z,10.02
2023-02-24T08:43:33.194Z,10.15
2023-02-24T08:48:32.562Z,10.45
2023-02-24T08:53:31.553Z,10.20
2023-02-24T08:58:28.118Z,12.95
2023-02-24T09:03:29.651Z,11.57
2023-02-24T09:08:24.340Z,11.27
2023-02-24T09:13:19.000Z,12.32
2023-02-24T09:18:14.586Z,11.00
2023-02-24T09:23:08.942Z,10.80
2023-02-24T09:28:09.014Z,11.40
2023-02-24T09:33:02.565Z,11.60
2023-02-24T09:38:00.334Z,12.73
2023-02-24T09:42:58.475Z,11.93
2023-02-24T09:47:57.250Z,13.13
2023-02-24T09:52:57.594Z,12.32
2023-02-24T09:58:43.280Z,13.07
2023-02-24T10:03:48.280Z,12.90
2023-02-24T10:08:47.552Z,14.13
2023-02-24T10:13:48.749Z,11.93
2023-02-24T10:18:47.003Z,11.98
2023-02-24T10:23:56.798Z,12.43
2023-02-24T10:28:58.576Z,11.60
2023-02-24T10:33:56.890Z,12.38
2023-02-24T10:38:50.897Z,12.68
2023-02-24T10:43:56.787Z,12.18
2023-02-24T10:48:53.556Z,12.43
2023-02-24T10:53:53.470Z,12.13
2023-02-24T10:58:56.780Z,12.88
2023-02-24T11:04:02.700Z,13.63
2023-02-24T11:09:19.142Z,14.00
2023-02-24T11:14:36.117Z,13.80
2023-02-24T11:19:33.954Z,12.88
2023-02-24T11:24:29.110Z,27.95
2023-02-24T11:29:39.757Z,15.63
2023-02-24T11:34:49.522Z,15.75
2023-02-24T11:39:53.370Z,12.73
2023-02-24T11:44:55.570Z,16.98
2023-02-24T11:49:55.028Z,12.60
2023-02-24T11:54:53.585Z,13.02
2023-02-24T11:59:54.106Z,12.20
2023-02-24T12:09:54.951Z,11.95
2023-02-24T12:14:54.568Z,11.95
2023-02-24T12:19:57.568Z,13.25
2023-02-24T12:24:54.787Z,11.73
2023-02-24T12:29:57.290Z,15.65
2023-02-24T12:34:58.503Z,22.08
2023-02-24T12:40:05.716Z,15.00
2023-02-24T12:45:05.076Z,14.38
2023-02-24T12:50:19.155Z,13.65
2023-02-24T12:55:22.760Z,16.30
2023-02-24T13:00:25.136Z,13.70
2023-02-24T13:05:23.435Z,13.32
2023-02-24T13:10:30.710Z,12.45
2023-02-24T13:15:26.422Z,13.50
2023-02-24T13:20:32.591Z,20.80
2023-02-24T13:25:32.111Z,13.25
2023-02-24T13:30:29.841Z,12.80
2023-02-24T13:35:34.652Z,13.80
2023-02-24T13:40:29.571Z,12.82
2023-02-24T13:45:23.252Z,12.98
2023-02-24T13:50:26.381Z,12.90
2023-02-24T13:55:39.827Z,11.57
2023-02-24T14:00:52.544Z,11.65
2023-02-24T14:05:46.261Z,14.05
2023-02-24T14:10:47.279Z,14.75
2023-02-24T14:15:44.220Z,14.55
2023-02-24T14:20:39.789Z,13.77
2023-02-24T14:25:40.048Z,14.18
2023-02-24T14:30:37.486Z,13.93
2023-02-24T14:35:35.440Z,23.58
2023-02-24T14:40:29.159Z,19.35
2023-02-24T14:45:26.363Z,13.88
2023-02-24T14:50:25.643Z,16.75
2023-02-24T14:55:21.949Z,16.08
2023-02-24T15:00:24.155Z,15.57
2023-02-24T15:05:19.647Z,15.15
2023-02-24T15:10:22.714Z,16.58
2023-02-24T15:15:21.827Z,17.33
2023-02-24T15:20:33.801Z,14.63
2023-02-24T15:26:20.784Z,15.65
2023-02-24T15:45:57.567Z,17.98
2023-02-24T16:17:38.945Z,20.33
2023-02-24T18:40:00.207Z,28.85
2023-02-24T18:45:50.871Z,41.08
2023-02-24T18:51:20.467Z,66.93
2023-02-24T19:12:06.988Z,59.42
2023-02-24T23:30:58.680Z,66.27
2023-02-24T23:35:54.645Z,53.10
2023-02-24T23:40:53.069Z,55.07
2023-02-24T23:45:50.247Z,43.23
2023-02-24T23:50:48.990Z,37.53
2023-02-24T23:55:46.452Z,32.37
